Time;durP1;ratioP1;P1;durP2;ratioP2;P2;SDS_P1;SDS_P2;PMS_P1;PMS_P2;Temp;Humidity;BMP_temperature;BMP_pressure;BME280_temperature;BME280_humidity;BME280_pressure;Samples;Min_cycle;Max_cycle;Signal;HPM_P1;HPM_P2
2023/05/15 00:02:22;;;;;;;;;;;12.70;78.70;;;;;;5118915;27;19931;-68
2023/05/15 00:04:48;;;;;;;;;;;12.70;78.80;;;;;;5107833;27;20003;-66
2023/05/15 00:07:15;;;;;;;;;;;12.70;78.50;;;;;;5110228;27;19927;-65
2023/05/15 00:09:42;;;;;;;;;;;12.70;78.50;;;;;;5111288;27;20282;-67
2023/05/15 00:12:09;;;;;;;;;;;12.60;78.80;;;;;;5114732;27;19927;-64
2023/05/15 00:14:37;;;;;;;;;;;12.60;78.90;;;;;;5109132;27;19938;-63
2023/05/15 00:17:03;;;;;;;;;;;12.50;79.00;;;;;;5105891;27;20370;-67
2023/05/15 00:19:30;;;;;;;;;;;12.40;79.20;;;;;;5114834;27;19923;-67
2023/05/15 00:21:57;;;;;;;;;;;12.50;79.30;;;;;;5109250;27;19930;-69
2023/05/15 00:24:24;;;;;;;;;;;12.40;79.40;;;;;;5107778;27;19935;-70
2023/05/15 00:26:50;;;;;;;;;;;12.20;79.80;;;;;;5110653;27;19950;-64
2023/05/15 00:29:17;;;;;;;;;;;12.20;79.90;;;;;;5113213;27;19927;-62
2023/05/15 00:31:46;;;;;;;;;;;12.20;79.90;;;;;;5113077;27;19938;-74
2023/05/15 00:34:13;;;;;;;;;;;12.20;80.00;;;;;;5117020;27;20060;-74
2023/05/15 00:36:39;;;;;;;;;;;12.20;80.00;;;;;;5117342;27;19989;-62
2023/05/15 00:39:06;;;;;;;;;;;12.20;80.00;;;;;;5109766;27;19932;-63
2023/05/15 00:41:33;;;;;;;;;;;12.20;79.90;;;;;;5112008;27;19927;-76
2023/05/15 00:44:00;;;;;;;;;;;12.20;79.80;;;;;;5113162;27;20792;-77
2023/05/15 00:46:27;;;;;;;;;;;12.20;79.70;;;;;;5113920;27;19923;-68
2023/05/15 00:48:56;;;;;;;;;;;12.10;79.70;;;;;;5114115;27;20287;-68
2023/05/15 00:51:23;;;;;;;;;;;12.10;79.80;;;;;;5115504;27;19970;-71
2023/05/15 00:53:51;;;;;;;;;;;12.10;79.80;;;;;;5108884;27;19931;-70
2023/05/15 00:56:18;;;;;;;;;;;12.10;79.70;;;;;;5110496;27;24344;-74
2023/05/15 00:58:46;;;;;;;;;;;12.00;79.80;;;;;;5110700;27;19934;-74
2023/05/15 01:01:13;;;;;;;;;;;11.90;79.90;;;;;;5116933;27;19931;-67
2023/05/15 01:03:41;;;;;;;;;;;11.90;80.10;;;;;;5114366;27;19923;-67
2023/05/15 01:06:09;;;;;;;;;;;11.80;80.20;;;;;;5114264;27;19931;-61
2023/05/15 01:08:38;;;;;;;;;;;11.80;80.20;;;;;;5119388;27;20397;-63
2023/05/15 01:11:07;;;;;;;;;;;11.80;80.20;;;;;;5120143;27;19931;-63
2023/05/15 01:13:34;;;;;;;;;;;11.80;80.20;;;;;;5113054;27;19972;-62
2023/05/15 01:16:00;;;;;;;;;;;11.70;80.20;;;;;;5112809;27;19935;-71
2023/05/15 01:18:31;;;;;;;;;;;11.70;80.40;;;;;;5117064;27;19927;-70
2023/05/15 01:21:06;;;;;;;;;;;11.60;80.50;;;;;;5112319;27;19946;-65
2023/05/15 01:23:39;;;;;;;;;;;11.60;80.50;;;;;;5112891;27;19928;-67
2023/05/15 01:26:23;;;;;;;;;;;11.60;80.50;;;;;;5110021;27;19938;-78
2023/05/15 01:28:55;;;;;;;;;;;11.60;80.30;;;;;;5104112;27;19943;-75
2023/05/15 01:31:32;;;;;;;;;;;11.70;80.20;;;;;;5112221;27;19943;-63
2023/05/15 01:34:02;;;;;;;;;;;11.70;80.10;;;;;;5117013;27;20395;-62
2023/05/15 01:36:33;;;;;;;;;;;11.50;80.20;;;;;;5116785;27;20010;-63
2023/05/15 01:39:01;;;;;;;;;;;11.60;80.10;;;;;;5116919;27;19923;-61
2023/05/15 01:41:29;;;;;;;;;;;11.60;80.30;;;;;;5115523;27;20548;-63
2023/05/15 01:44:00;;;;;;;;;;;11.50;80.40;;;;;;5113104;27;20394;-63
2023/05/15 01:46:29;;;;;;;;;;;11.50;80.50;;;;;;5115482;27;19946;-63
2023/05/15 01:48:58;;;;;;;;;;;11.40;80.50;;;;;;5114172;27;19927;-63
2023/05/15 01:51:26;;;;;;;;;;;11.40;80.40;;;;;;5116010;27;19933;-64
2023/05/15 01:53:53;;;;;;;;;;;11.40;80.50;;;;;;5116197;27;20384;-64
2023/05/15 01:56:21;;;;;;;;;;;11.40;80.40;;;;;;5111912;27;19947;-67
2023/05/15 01:58:48;;;;;;;;;;;11.40;80.40;;;;;;5098539;28;19931;-67
2023/05/15 02:01:16;;;;;;;;;;;11.30;80.50;;;;;;5110670;28;19931;-66
2023/05/15 02:03:44;;;;;;;;;;;11.30;80.40;;;;;;5113467;28;20008;-67
2023/05/15 02:06:12;;;;;;;;;;;11.20;80.40;;;;;;5118785;28;20335;-68
2023/05/15 02:08:39;;;;;;;;;;;11.20;80.40;;;;;;5110287;27;19923;-67
2023/05/15 02:11:06;;;;;;;;;;;11.20;80.40;;;;;;5114143;28;19930;-67
2023/05/15 02:13:34;;;;;;;;;;;11.20;80.40;;;;;;5114906;27;20003;-67
2023/05/15 02:16:00;;;;;;;;;;;11.20;80.40;;;;;;5111917;28;19927;-74
2023/05/15 02:18:28;;;;;;;;;;;11.20;80.40;;;;;;5116596;27;19951;-73
2023/05/15 02:20:59;;;;;;;;;;;11.10;80.50;;;;;;5117920;27;19923;-62
2023/05/15 02:23:26;;;;;;;;;;;11.10;80.50;;;;;;5103413;27;20271;-62
2023/05/15 02:26:01;;;;;;;;;;;11.00;80.50;;;;;;5117526;27;19993;-61
2023/05/15 02:28:30;;;;;;;;;;;10.90;80.70;;;;;;5111200;27;19932;-61
2023/05/15 02:30:59;;;;;;;;;;;10.90;80.80;;;;;;5115679;27;19923;-62
2023/05/15 02:33:30;;;;;;;;;;;10.90;80.80;;;;;;5116335;27;19932;-62
2023/05/15 02:35:59;;;;;;;;;;;10.90;80.80;;;;;;5118084;27;19989;-62
2023/05/15 02:38:29;;;;;;;;;;;10.90;80.80;;;;;;5110350;27;19954;-61
2023/05/15 02:40:56;;;;;;;;;;;10.90;81.00;;;;;;5118680;27;19928;-61
2023/05/15 02:43:24;;;;;;;;;;;10.90;80.90;;;;;;5122089;27;20413;-62
2023/05/15 02:45:52;;;;;;;;;;;10.90;80.80;;;;;;5117337;27;19928;-63
2023/05/15 02:48:19;;;;;;;;;;;10.90;81.00;;;;;;5102662;27;20378;-62
2023/05/15 02:50:46;;;;;;;;;;;10.90;81.00;;;;;;5117797;27;19927;-75
2023/05/15 02:53:15;;;;;;;;;;;10.80;81.10;;;;;;5102167;27;19928;-76
2023/05/15 02:55:41;;;;;;;;;;;10.80;81.20;;;;;;5117458;27;19930;-63
2023/05/15 02:58:08;;;;;;;;;;;10.80;81.30;;;;;;5119970;27;20019;-60
2023/05/15 03:00:35;;;;;;;;;;;10.70;81.30;;;;;;5123699;27;19924;-61
2023/05/15 03:03:02;;;;;;;;;;;10.80;81.30;;;;;;5120437;27;19924;-63
2023/05/15 03:05:29;;;;;;;;;;;10.80;81.10;;;;;;5112742;27;19950;-65
2023/05/15 03:07:56;;;;;;;;;;;10.90;80.90;;;;;;5117451;27;20451;-74
2023/05/15 03:10:24;;;;;;;;;;;10.90;80.80;;;;;;5119517;27;19989;-76
2023/05/15 03:12:51;;;;;;;;;;;10.90;80.90;;;;;;5113227;27;20027;-76
2023/05/15 03:15:19;;;;;;;;;;;10.90;80.80;;;;;;5115641;27;19927;-75
2023/05/15 03:17:45;;;;;;;;;;;10.90;80.80;;;;;;5127936;27;20476;-63
2023/05/15 03:20:13;;;;;;;;;;;10.80;80.80;;;;;;5115685;27;20358;-63
2023/05/15 03:22:40;;;;;;;;;;;10.80;81.00;;;;;;5116395;27;19930;-62
2023/05/15 03:25:07;;;;;;;;;;;10.70;81.10;;;;;;5119027;27;19969;-60
2023/05/15 03:27:35;;;;;;;;;;;10.70;81.10;;;;;;5118024;27;20454;-65
2023/05/15 03:30:02;;;;;;;;;;;10.60;81.20;;;;;;5114880;27;19931;-64
2023/05/15 03:32:29;;;;;;;;;;;10.60;81.40;;;;;;5116033;27;19931;-63
2023/05/15 03:34:56;;;;;;;;;;;10.50;81.40;;;;;;5119822;27;19931;-64
2023/05/15 03:37:23;;;;;;;;;;;10.60;81.40;;;;;;5119691;27;20370;-75
2023/05/15 03:39:49;;;;;;;;;;;10.50;81.30;;;;;;5117653;27;20370;-74
2023/05/15 03:42:21;;;;;;;;;;;10.50;81.40;;;;;;5115226;27;19930;-70
2023/05/15 03:44:49;;;;;;;;;;;10.40;81.30;;;;;;5116890;27;19927;-69
2023/05/15 03:47:16;;;;;;;;;;;10.40;81.20;;;;;;5118875;27;20020;-65
2023/05/15 03:49:43;;;;;;;;;;;10.50;81.10;;;;;;5119468;27;19946;-65
2023/05/15 03:52:10;;;;;;;;;;;10.50;81.20;;;;;;5114416;27;19931;-76
2023/05/15 03:54:36;;;;;;;;;;;10.50;81.30;;;;;;5117536;27;19928;-78
2023/05/15 03:57:03;;;;;;;;;;;10.50;81.50;;;;;;5115365;27;19931;-67
2023/05/15 03:59:30;;;;;;;;;;;10.50;81.80;;;;;;5103195;27;19971;-68
2023/05/15 04:01:58;;;;;;;;;;;10.50;81.90;;;;;;5117491;27;19928;-68
2023/05/15 04:04:25;;;;;;;;;;;10.50;82.00;;;;;;5116257;27;19996;-68
2023/05/15 04:06:51;;;;;;;;;;;10.60;82.00;;;;;;5118682;27;19928;-68
2023/05/15 04:09:18;;;;;;;;;;;10.50;82.00;;;;;;5120547;27;19932;-67
2023/05/15 04:11:45;;;;;;;;;;;10.60;82.10;;;;;;5115444;27;19928;-61
2023/05/15 04:14:12;;;;;;;;;;;10.60;82.20;;;;;;5117043;27;19928;-61
2023/05/15 04:16:41;;;;;;;;;;;10.60;82.10;;;;;;5118241;27;19930;-73
2023/05/15 04:19:09;;;;;;;;;;;10.60;82.10;;;;;;5119452;27;19923;-74
2023/05/15 04:21:36;;;;;;;;;;;10.70;82.10;;;;;;5115801;27;20335;-65
2023/05/15 04:24:03;;;;;;;;;;;10.70;82.10;;;;;;5112281;27;19939;-65
2023/05/15 04:26:30;;;;;;;;;;;10.60;82.10;;;;;;5118451;27;19924;-75
2023/05/15 04:28:57;;;;;;;;;;;10.60;82.20;;;;;;5117551;27;19969;-74
2023/05/15 04:31:23;;;;;;;;;;;10.60;82.30;;;;;;5117768;27;20009;-67
2023/05/15 04:33:50;;;;;;;;;;;10.70;82.30;;;;;;5119042;27;20014;-67
2023/05/15 04:36:18;;;;;;;;;;;10.70;82.30;;;;;;5118072;27;20309;-64
2023/05/15 04:38:45;;;;;;;;;;;10.70;82.30;;;;;;5120199;27;20030;-64
2023/05/15 04:41:12;;;;;;;;;;;10.70;82.30;;;;;;5117258;27;19962;-70
2023/05/15 04:43:39;;;;;;;;;;;10.80;82.30;;;;;;5121552;27;19931;-69
2023/05/15 04:46:05;;;;;;;;;;;10.80;82.50;;;;;;5117888;27;19932;-73
2023/05/15 04:48:32;;;;;;;;;;;10.80;82.80;;;;;;5118456;27;19923;-73
2023/05/15 04:50:59;;;;;;;;;;;10.80;82.90;;;;;;5117121;27;19928;-67
2023/05/15 04:53:27;;;;;;;;;;;10.70;83.10;;;;;;5117070;27;19928;-66
2023/05/15 04:55:54;;;;;;;;;;;10.70;83.30;;;;;;5115142;27;20374;-69
2023/05/15 04:58:21;;;;;;;;;;;10.80;83.00;;;;;;5117176;27;19935;-69
2023/05/15 05:00:47;;;;;;;;;;;10.80;82.70;;;;;;5114618;27;19927;-66
2023/05/15 05:03:14;;;;;;;;;;;10.90;83.00;;;;;;5118925;27;19928;-67
2023/05/15 05:05:41;;;;;;;;;;;10.90;83.10;;;;;;5117571;27;19980;-73
2023/05/15 05:08:08;;;;;;;;;;;10.90;83.20;;;;;;5113918;27;19977;-73
2023/05/15 05:10:36;;;;;;;;;;;11.00;83.10;;;;;;5117604;27;20382;-67
2023/05/15 05:13:03;;;;;;;;;;;11.00;83.10;;;;;;5119053;27;20078;-67
2023/05/15 05:15:32;;;;;;;;;;;10.90;83.10;;;;;;5115856;27;19928;-67
2023/05/15 05:17:59;;;;;;;;;;;11.00;83.30;;;;;;5118478;27;19934;-66
2023/05/15 05:20:25;;;;;;;;;;;11.00;83.40;;;;;;5117396;27;20301;-65
2023/05/15 05:22:52;;;;;;;;;;;11.00;83.40;;;;;;5116703;27;19927;-64
2023/05/15 05:25:19;;;;;;;;;;;10.90;83.50;;;;;;5115135;27;20476;-66
2023/05/15 05:27:47;;;;;;;;;;;11.00;83.50;;;;;;5114922;27;20271;-69
2023/05/15 05:30:14;;;;;;;;;;;11.00;83.70;;;;;;5113962;27;20091;-69
2023/05/15 05:32:41;;;;;;;;;;;11.00;83.90;;;;;;5118838;27;19923;-64
2023/05/15 05:35:08;;;;;;;;;;;11.00;84.00;;;;;;5115627;27;19928;-64
2023/05/15 05:37:34;;;;;;;;;;;11.00;84.00;;;;;;5118676;27;19928;-66
2023/05/15 05:40:01;;;;;;;;;;;11.00;84.00;;;;;;5115379;27;19927;-66
2023/05/15 05:42:28;;;;;;;;;;;11.00;83.80;;;;;;5118230;27;19923;-67
2023/05/15 05:44:56;;;;;;;;;;;11.10;83.70;;;;;;5117909;27;19935;-66
2023/05/15 05:47:23;;;;;;;;;;;11.10;83.30;;;;;;5118605;27;20401;-61
2023/05/15 05:49:49;;;;;;;;;;;11.20;83.50;;;;;;5121781;27;19923;-61
2023/05/15 05:52:16;;;;;;;;;;;11.20;83.60;;;;;;5115636;27;19942;-66
2023/05/15 05:54:45;;;;;;;;;;;11.30;83.30;;;;;;5113567;27;20394;-65
2023/05/15 05:57:11;;;;;;;;;;;11.30;83.50;;;;;;5116659;27;19938;-67
2023/05/15 05:59:38;;;;;;;;;;;11.30;83.40;;;;;;5116289;28;19923;-66
2023/05/15 06:02:07;;;;;;;;;;;11.30;83.40;;;;;;5116566;27;19981;-65
2023/05/15 06:04:34;;;;;;;;;;;11.40;83.50;;;;;;5120078;28;19934;-68
2023/05/15 06:07:01;;;;;;;;;;;11.40;83.30;;;;;;5115536;28;20701;-63
2023/05/15 06:09:28;;;;;;;;;;;11.40;83.20;;;;;;5115954;28;19927;-63
2023/05/15 06:11:54;;;;;;;;;;;11.50;83.30;;;;;;5117902;28;19972;-61
2023/05/15 06:14:22;;;;;;;;;;;11.60;83.20;;;;;;5112870;27;19923;-60
2023/05/15 06:16:48;;;;;;;;;;;11.60;83.10;;;;;;5096876;28;19991;-63
2023/05/15 06:19:16;;;;;;;;;;;11.70;82.90;;;;;;5117542;28;19923;-65
2023/05/15 06:21:43;;;;;;;;;;;11.70;82.70;;;;;;5114514;28;20362;-77
2023/05/15 06:24:10;;;;;;;;;;;11.80;82.30;;;;;;5116327;28;19943;-77
2023/05/15 06:26:37;;;;;;;;;;;11.80;82.60;;;;;;5114080;28;19969;-73
2023/05/15 06:29:03;;;;;;;;;;;11.80;82.30;;;;;;5116210;28;20900;-75
2023/05/15 06:31:30;;;;;;;;;;;11.80;82.30;;;;;;5115713;28;19924;-67
2023/05/15 06:33:57;;;;;;;;;;;11.80;82.30;;;;;;5114230;28;19963;-67
2023/05/15 06:36:25;;;;;;;;;;;11.90;82.50;;;;;;5115188;27;19947;-70
2023/05/15 06:38:51;;;;;;;;;;;12.00;82.40;;;;;;5119361;28;19935;-69
2023/05/15 06:41:18;;;;;;;;;;;12.10;81.60;;;;;;5116587;28;19923;-69
2023/05/15 06:43:45;;;;;;;;;;;12.20;81.30;;;;;;5116593;28;19930;-69
2023/05/15 06:46:15;;;;;;;;;;;12.20;81.20;;;;;;5114221;27;19927;-66
2023/05/15 06:48:41;;;;;;;;;;;12.30;81.40;;;;;;5114163;28;19924;-66
2023/05/15 06:51:08;;;;;;;;;;;12.50;81.40;;;;;;5114454;27;19977;-66
2023/05/15 06:53:36;;;;;;;;;;;12.70;81.20;;;;;;5111571;27;19934;-65
2023/05/15 06:56:03;;;;;;;;;;;12.80;81.10;;;;;;5117083;28;19956;-67
2023/05/15 06:58:29;;;;;;;;;;;13.00;81.00;;;;;;5114829;28;19929;-66
2023/05/15 07:00:56;;;;;;;;;;;13.10;80.90;;;;;;5116896;27;19924;-61
2023/05/15 07:03:23;;;;;;;;;;;13.30;80.70;;;;;;5115023;27;19923;-60
2023/05/15 07:05:49;;;;;;;;;;;13.50;80.30;;;;;;5118537;27;19924;-64
2023/05/15 07:08:16;;;;;;;;;;;13.60;80.00;;;;;;5118495;27;20290;-63
2023/05/15 07:10:44;;;;;;;;;;;13.80;79.50;;;;;;5122368;27;19930;-64
2023/05/15 07:13:11;;;;;;;;;;;13.90;79.40;;;;;;5120089;27;19923;-64
2023/05/15 07:15:38;;;;;;;;;;;14.00;79.60;;;;;;5116549;27;19935;-65
2023/05/15 07:18:05;;;;;;;;;;;14.20;79.50;;;;;;5123233;27;19936;-64
2023/05/15 07:20:32;;;;;;;;;;;14.30;79.40;;;;;;5121871;27;19927;-66
2023/05/15 07:22:58;;;;;;;;;;;14.50;79.10;;;;;;5124395;27;19939;-70
2023/05/15 07:25:25;;;;;;;;;;;14.60;79.20;;;;;;5126177;27;19927;-67
2023/05/15 07:27:53;;;;;;;;;;;14.70;79.10;;;;;;5124232;27;19924;-66
2023/05/15 07:30:20;;;;;;;;;;;14.90;78.90;;;;;;5121830;27;19943;-66
2023/05/15 07:32:47;;;;;;;;;;;15.00;79.00;;;;;;5121586;27;19923;-65
2023/05/15 07:35:14;;;;;;;;;;;15.20;78.60;;;;;;5119034;27;19932;-67
2023/05/15 07:37:40;;;;;;;;;;;15.30;78.10;;;;;;5119385;27;19974;-62
2023/05/15 07:40:08;;;;;;;;;;;15.40;77.60;;;;;;5120247;27;19959;-62
2023/05/15 07:42:35;;;;;;;;;;;15.60;77.50;;;;;;5118708;27;19969;-67
2023/05/15 07:45:03;;;;;;;;;;;15.70;77.20;;;;;;5118352;27;19923;-67
2023/05/15 07:47:31;;;;;;;;;;;15.90;76.80;;;;;;5118607;27;19932;-67
2023/05/15 07:49:58;;;;;;;;;;;16.00;76.40;;;;;;5120839;27;19938;-67
2023/05/15 07:52:24;;;;;;;;;;;16.10;76.10;;;;;;5118119;27;20493;-61
2023/05/15 07:54:51;;;;;;;;;;;16.20;75.60;;;;;;5118668;27;20030;-62
2023/05/15 07:57:18;;;;;;;;;;;16.30;75.20;;;;;;5103210;27;19924;-65
2023/05/15 07:59:45;;;;;;;;;;;16.40;74.40;;;;;;5118993;27;19957;-66
2023/05/15 08:02:13;;;;;;;;;;;16.60;74.00;;;;;;5119098;27;19934;-77
2023/05/15 08:04:40;;;;;;;;;;;16.70;73.60;;;;;;5120920;27;20320;-76
2023/05/15 08:07:06;;;;;;;;;;;16.90;73.00;;;;;;5117701;27;19924;-63
2023/05/15 08:09:33;;;;;;;;;;;17.00;72.60;;;;;;5119402;27;19946;-64
2023/05/15 08:12:15;;;;;;;;;;;17.20;72.20;;;;;;5118389;27;19938;-69
2023/05/15 08:14:42;;;;;;;;;;;17.40;71.90;;;;;;5116819;27;19984;-69
2023/05/15 08:17:09;;;;;;;;;;;17.40;71.10;;;;;;5117235;27;20310;-66
2023/05/15 08:19:37;;;;;;;;;;;17.50;70.90;;;;;;5120791;27;20017;-67
2023/05/15 08:22:04;;;;;;;;;;;17.60;71.00;;;;;;5117012;27;19931;-69
2023/05/15 08:24:30;;;;;;;;;;;17.80;70.80;;;;;;5121739;27;19939;-67
2023/05/15 08:26:57;;;;;;;;;;;17.80;71.00;;;;;;5121052;27;19923;-68
2023/05/15 08:29:24;;;;;;;;;;;18.00;70.20;;;;;;5118768;27;20389;-69
2023/05/15 08:31:50;;;;;;;;;;;18.10;70.00;;;;;;5119049;27;19931;-62
2023/05/15 08:34:17;;;;;;;;;;;18.30;69.80;;;;;;5118004;27;19935;-62
2023/05/15 08:36:45;;;;;;;;;;;18.40;69.60;;;;;;5118482;27;19931;-76
2023/05/15 08:39:13;;;;;;;;;;;18.50;69.30;;;;;;5118398;27;20018;-76
2023/05/15 08:41:42;;;;;;;;;;;18.60;69.10;;;;;;5115534;27;19932;-76
2023/05/15 08:44:09;;;;;;;;;;;18.50;69.40;;;;;;5114472;27;19931;-75
2023/05/15 08:46:36;;;;;;;;;;;18.40;69.00;;;;;;5114966;27;20599;-70
2023/05/15 08:49:07;;;;;;;;;;;18.50;68.40;;;;;;5117925;27;20396;-67
2023/05/15 08:51:34;;;;;;;;;;;18.60;68.70;;;;;;5117095;27;19923;-66
2023/05/15 08:54:03;;;;;;;;;;;18.60;68.30;;;;;;5117637;27;19966;-67
2023/05/15 08:56:29;;;;;;;;;;;18.80;68.20;;;;;;5118559;27;19927;-66
2023/05/15 08:58:56;;;;;;;;;;;19.00;68.20;;;;;;5115700;27;19967;-67
2023/05/15 09:01:23;;;;;;;;;;;19.20;67.70;;;;;;5116025;27;19929;-78
2023/05/15 09:03:50;;;;;;;;;;;19.20;67.00;;;;;;5116019;27;20671;-77
2023/05/15 09:06:16;;;;;;;;;;;19.50;66.40;;;;;;5115768;27;19935;-66
2023/05/15 09:08:43;;;;;;;;;;;19.60;66.30;;;;;;5117712;27;19927;-67
2023/05/15 09:11:13;;;;;;;;;;;19.90;65.10;;;;;;5117375;27;19927;-63
2023/05/15 09:13:40;;;;;;;;;;;20.00;64.50;;;;;;5120612;27;20349;-62
2023/05/15 09:16:07;;;;;;;;;;;20.30;64.30;;;;;;5116364;27;19931;-61
2023/05/15 09:18:34;;;;;;;;;;;20.40;63.70;;;;;;5119032;27;20389;-62
2023/05/15 09:21:16;;;;;;;;;;;20.40;63.20;;;;;;5116325;27;20026;-63
2023/05/15 09:23:42;;;;;;;;;;;20.40;62.70;;;;;;5116505;27;19939;-63
2023/05/15 09:26:12;;;;;;;;;;;20.30;62.60;;;;;;5119329;27;19932;-62
2023/05/15 09:28:39;;;;;;;;;;;20.10;63.00;;;;;;5116049;27;19932;-62
2023/05/15 09:31:07;;;;;;;;;;;20.00;62.70;;;;;;5117221;27;19972;-68
2023/05/15 09:33:35;;;;;;;;;;;19.80;62.30;;;;;;5117015;27;19985;-67
2023/05/15 09:36:02;;;;;;;;;;;19.60;61.60;;;;;;5117654;27;19928;-77
2023/05/15 09:38:29;;;;;;;;;;;19.50;61.60;;;;;;5118044;27;19928;-77
2023/05/15 09:41:01;;;;;;;;;;;19.40;61.70;;;;;;5122132;27;20063;-77
2023/05/15 09:43:29;;;;;;;;;;;19.30;61.90;;;;;;5113868;27;19935;-77
2023/05/15 09:45:56;;;;;;;;;;;19.30;62.20;;;;;;5119300;27;19997;-68
2023/05/15 09:48:23;;;;;;;;;;;19.20;62.20;;;;;;5116896;27;19931;-67
2023/05/15 09:50:52;;;;;;;;;;;19.20;62.80;;;;;;5115843;27;20149;-61
2023/05/15 09:53:19;;;;;;;;;;;19.10;62.90;;;;;;5113984;27;19931;-61
2023/05/15 09:55:47;;;;;;;;;;;19.10;63.30;;;;;;5116512;27;20791;-71
2023/05/15 09:58:15;;;;;;;;;;;19.10;63.50;;;;;;5118736;27;19991;-69
2023/05/15 10:00:43;;;;;;;;;;;19.10;62.80;;;;;;5099942;28;19923;-70
2023/05/15 10:03:11;;;;;;;;;;;19.10;62.50;;;;;;5130577;28;19991;-71
2023/05/15 10:05:38;;;;;;;;;;;19.10;62.40;;;;;;5123470;27;19928;-76
2023/05/15 10:08:05;;;;;;;;;;;19.10;62.00;;;;;;5114721;28;21831;-76
2023/05/15 10:10:32;;;;;;;;;;;19.20;62.10;;;;;;5119894;28;20279;-77
2023/05/15 10:13:02;;;;;;;;;;;19.30;62.10;;;;;;5118537;28;19934;-77
2023/05/15 10:15:29;;;;;;;;;;;19.30;62.00;;;;;;5114951;28;20000;-76
2023/05/15 10:17:57;;;;;;;;;;;19.20;61.50;;;;;;5118213;28;19927;-77
2023/05/15 10:20:24;;;;;;;;;;;19.00;61.80;;;;;;5116560;28;19928;-76
2023/05/15 10:22:52;;;;;;;;;;;18.90;62.90;;;;;;5116705;28;19927;-75
2023/05/15 10:25:23;;;;;;;;;;;18.70;63.40;;;;;;5119620;27;19930;-66
2023/05/15 10:27:51;;;;;;;;;;;18.60;64.70;;;;;;5110661;28;19927;-67
2023/05/15 10:30:19;;;;;;;;;;;18.40;65.40;;;;;;5117220;28;19963;-62
2023/05/15 10:32:46;;;;;;;;;;;18.30;66.50;;;;;;5115439;28;19928;-62
2023/05/15 10:35:15;;;;;;;;;;;18.20;67.90;;;;;;5115634;28;20019;-66
2023/05/15 10:37:41;;;;;;;;;;;18.10;68.40;;;;;;5116408;28;19974;-66
2023/05/15 10:40:09;;;;;;;;;;;18.00;68.90;;;;;;5118042;27;19928;-66
2023/05/15 10:42:37;;;;;;;;;;;18.00;69.40;;;;;;5121522;27;20339;-66
2023/05/15 10:45:04;;;;;;;;;;;18.00;69.90;;;;;;5120178;27;19939;-67
2023/05/15 10:47:31;;;;;;;;;;;18.00;70.30;;;;;;5119834;27;19932;-66
2023/05/15 10:49:58;;;;;;;;;;;18.00;71.20;;;;;;5125241;27;20023;-67
2023/05/15 10:52:26;;;;;;;;;;;18.00;71.80;;;;;;5119924;27;19928;-64
2023/05/15 10:54:53;;;;;;;;;;;18.10;72.20;;;;;;5121653;27;19955;-64
2023/05/15 10:57:20;;;;;;;;;;;18.10;72.70;;;;;;5118868;27;19923;-63
2023/05/15 10:59:47;;;;;;;;;;;18.20;72.80;;;;;;5120603;27;19928;-63
2023/05/15 11:02:22;;;;;;;;;;;18.30;73.70;;;;;;5118535;27;19930;-77
2023/05/15 11:04:53;;;;;;;;;;;18.30;74.40;;;;;;5120542;27;19927;-76
2023/05/15 11:07:20;;;;;;;;;;;18.40;74.00;;;;;;5116601;27;20386;-65
2023/05/15 11:09:48;;;;;;;;;;;18.50;73.70;;;;;;5118771;27;19932;-66
2023/05/15 11:12:15;;;;;;;;;;;18.60;73.70;;;;;;5120358;27;20374;-69
2023/05/15 11:14:43;;;;;;;;;;;18.60;73.50;;;;;;5115515;27;19927;-69
2023/05/15 11:17:10;;;;;;;;;;;18.70;74.00;;;;;;5117725;27;19993;-65
2023/05/15 11:19:38;;;;;;;;;;;18.70;73.50;;;;;;5117117;27;20015;-65
2023/05/15 11:22:18;;;;;;;;;;;18.70;73.30;;;;;;5120700;27;20416;-65
2023/05/15 11:24:50;;;;;;;;;;;18.60;72.90;;;;;;5120315;27;20333;-64
2023/05/15 11:27:17;;;;;;;;;;;18.60;72.90;;;;;;5118498;27;19932;-67
2023/05/15 11:30:03;;;;;;;;;;;18.60;73.00;;;;;;5120316;27;19931;-65
2023/05/15 11:32:40;;;;;;;;;;;18.60;72.40;;;;;;5115132;27;20033;-66
2023/05/15 11:35:09;;;;;;;;;;;18.70;72.10;;;;;;5115268;27;19932;-65
2023/05/15 11:37:37;;;;;;;;;;;18.80;71.60;;;;;;5116140;27;19927;-65
2023/05/15 11:40:07;;;;;;;;;;;18.80;71.50;;;;;;5120863;27;20354;-65
2023/05/15 11:42:33;;;;;;;;;;;18.90;71.20;;;;;;5120759;27;19932;-66
2023/05/15 11:45:00;;;;;;;;;;;19.00;70.70;;;;;;5113162;27;19932;-65
2023/05/15 11:47:29;;;;;;;;;;;19.20;70.20;;;;;;5113535;27;19931;-66
2023/05/15 11:49:56;;;;;;;;;;;19.20;69.30;;;;;;5117577;27;19932;-65
2023/05/15 11:52:24;;;;;;;;;;;19.30;69.10;;;;;;5118622;27;19924;-66
2023/05/15 11:54:51;;;;;;;;;;;19.40;67.60;;;;;;5114362;27;19932;-66
2023/05/15 11:57:21;;;;;;;;;;;19.50;65.90;;;;;;5118372;27;19934;-68
2023/05/15 11:59:48;;;;;;;;;;;19.60;64.20;;;;;;5113328;27;19934;-69
2023/05/15 12:02:16;;;;;;;;;;;19.60;63.10;;;;;;5121418;27;19934;-63
2023/05/15 12:04:43;;;;;;;;;;;19.40;62.40;;;;;;5120936;27;19923;-62
2023/05/15 12:07:10;;;;;;;;;;;19.40;62.20;;;;;;5119953;27;19928;-63
2023/05/15 12:09:39;;;;;;;;;;;19.40;61.60;;;;;;5116853;27;20535;-63
2023/05/15 12:12:08;;;;;;;;;;;19.50;61.30;;;;;;5115334;27;19928;-66
2023/05/15 12:14:36;;;;;;;;;;;19.60;61.30;;;;;;5114181;27;19927;-66
2023/05/15 12:17:12;;;;;;;;;;;19.50;60.30;;;;;;5119487;27;20336;-65
2023/05/15 12:19:40;;;;;;;;;;;19.30;60.70;;;;;;5122800;27;20050;-64
2023/05/15 12:22:07;;;;;;;;;;;19.20;60.40;;;;;;5103108;27;19934;-74
2023/05/15 12:24:38;;;;;;;;;;;19.10;59.80;;;;;;5118056;27;20017;-74
2023/05/15 12:27:05;;;;;;;;;;;19.10;59.70;;;;;;5116324;27;19923;-76
2023/05/15 12:29:32;;;;;;;;;;;19.30;59.60;;;;;;5119383;27;19924;-75
2023/05/15 12:32:00;;;;;;;;;;;19.30;59.00;;;;;;5114722;27;19928;-75
2023/05/15 12:34:35;;;;;;;;;;;19.40;58.50;;;;;;5122617;27;20499;-76
2023/05/15 12:37:05;;;;;;;;;;;19.60;58.20;;;;;;5123312;27;19927;-76
2023/05/15 12:39:32;;;;;;;;;;;19.80;57.50;;;;;;5120813;27;19982;-75
2023/05/15 12:41:59;;;;;;;;;;;19.90;57.20;;;;;;5127227;27;19931;-78
2023/05/15 12:44:26;;;;;;;;;;;20.00;56.20;;;;;;5128144;27;19928;-77
2023/05/15 12:46:54;;;;;;;;;;;20.00;54.80;;;;;;5119117;27;19984;-76
2023/05/15 12:49:22;;;;;;;;;;;19.90;54.50;;;;;;5116071;27;19932;-76
2023/05/15 12:51:49;;;;;;;;;;;19.90;54.50;;;;;;5120646;27;19927;-78
2023/05/15 12:54:17;;;;;;;;;;;19.80;53.60;;;;;;5120669;27;19930;-77
2023/05/15 12:56:43;;;;;;;;;;;19.70;53.10;;;;;;5112282;27;19975;-67
2023/05/15 12:59:10;;;;;;;;;;;19.70;53.40;;;;;;5120950;27;20373;-68
2023/05/15 13:01:37;;;;;;;;;;;19.70;53.70;;;;;;5113917;27;19963;-65
2023/05/15 13:04:04;;;;;;;;;;;19.70;54.10;;;;;;5119831;27;20301;-64
2023/05/15 13:06:32;;;;;;;;;;;19.80;53.70;;;;;;5118644;27;19928;-65
2023/05/15 13:08:59;;;;;;;;;;;19.80;52.60;;;;;;5118371;27;20378;-65
2023/05/15 13:11:29;;;;;;;;;;;19.80;53.00;;;;;;5116083;27;20000;-66
2023/05/15 13:13:56;;;;;;;;;;;19.80;51.90;;;;;;5113829;27;20400;-67
2023/05/15 13:16:29;;;;;;;;;;;19.80;51.40;;;;;;5118819;27;19951;-64
2023/05/15 13:18:57;;;;;;;;;;;19.90;52.00;;;;;;5113300;27;20545;-64
2023/05/15 13:21:44;;;;;;;;;;;19.90;52.80;;;;;;5118096;27;20008;-70
2023/05/15 13:24:12;;;;;;;;;;;19.90;52.50;;;;;;5113791;27;19927;-70
2023/05/15 13:26:39;;;;;;;;;;;20.00;52.20;;;;;;5117037;27;19930;-76
2023/05/15 13:29:06;;;;;;;;;;;20.10;51.60;;;;;;5118840;27;19924;-77
2023/05/15 13:31:33;;;;;;;;;;;20.10;51.10;;;;;;5119671;27;19934;-77
2023/05/15 13:33:59;;;;;;;;;;;20.10;49.20;;;;;;5118522;27;19978;-76
2023/05/15 13:36:26;;;;;;;;;;;20.10;49.70;;;;;;5114370;27;19950;-77
2023/05/15 13:38:53;;;;;;;;;;;20.10;49.20;;;;;;5111763;27;19932;-76
2023/05/15 13:41:21;;;;;;;;;;;20.20;50.10;;;;;;5115492;27;19936;-68
2023/05/15 13:43:48;;;;;;;;;;;20.30;51.10;;;;;;5119534;27;19958;-68
2023/05/15 13:46:15;;;;;;;;;;;20.30;51.20;;;;;;5120849;27;19933;-76
2023/05/15 13:48:41;;;;;;;;;;;20.30;52.00;;;;;;5121644;27;20375;-72
2023/05/15 13:51:08;;;;;;;;;;;20.20;51.80;;;;;;5113336;27;19927;-65
2023/05/15 13:53:35;;;;;;;;;;;20.30;52.00;;;;;;5115805;27;19946;-65
2023/05/15 13:56:07;;;;;;;;;;;20.30;51.60;;;;;;5118762;28;19931;-65
2023/05/15 13:58:37;;;;;;;;;;;20.30;50.90;;;;;;5120824;27;20365;-65
2023/05/15 14:01:05;;;;;;;;;;;20.40;51.70;;;;;;5119808;27;19927;-68
2023/05/15 14:03:31;;;;;;;;;;;20.40;51.00;;;;;;5119254;28;19956;-68
2023/05/15 14:05:58;;;;;;;;;;;20.30;51.20;;;;;;5121141;27;19934;-71
2023/05/15 14:08:25;;;;;;;;;;;20.30;51.70;;;;;;5119268;28;19924;-69
2023/05/15 14:10:52;;;;;;;;;;;20.40;51.20;;;;;;5118457;28;19992;-62
2023/05/15 14:13:19;;;;;;;;;;;20.40;51.00;;;;;;5117788;28;20027;-64
2023/05/15 14:15:47;;;;;;;;;;;20.40;51.60;;;;;;5122993;27;19973;-65
2023/05/15 14:18:13;;;;;;;;;;;20.30;51.40;;;;;;5123142;27;20030;-65
2023/05/15 14:20:40;;;;;;;;;;;20.40;52.40;;;;;;5122591;27;19932;-67